Updated21/01/2021 13:45 
 

GeoURL
free counters
Scottish Weather Network UK Weather Network Cumulus Top Weather Sites

Peebles Weather - Flight Tracking (FlightRadar)

Raw Data, Raw Data Expanded

Ignore low humidity and Dew Point values. Something wrong with the sensor.
Daytime temperatures are in direct sunlight so may be higher than official air temperature values.
As with any other website, we log your IP address and browser type in the server logs for diagnostic reasons. Cookies are used to record visit time and gauges preferences. No personal information is stored or processed.

All times are in local time (GMT, or BST in summer) unless specified.

2021/01/21 13:20 EGPH 211320Z 25013KT CAVOK 04/01 Q0972
3.5°C 2.7 mm 12.6 mm 14.7 mm 6.7 mph 9.8 mph 969.3 hPa 10% X-Ray Solar Flare Level
Planetary K-Index
Planetary K-Index History
Station Warn Rain Snow Flood Wind Ltng Heat Cold Glob Moon Temp Rain 1h Rain Thu Rain 24h Wind 10m Gust Pressure Hum Proton Levels
ice
m Waxing Gibbous Cold F2-W F: A: Kp:0 SSN:0

Flight Tracking

Map from FlightRadar24

Edinburgh Airport Arrivals/Departures

Data from Flightstats

XHTML 1.1 | CSS